createdAt,value
2018-11-06T00:00:31.157Z,95002.00
2018-11-06T00:01:08.783Z,95002.00
2018-11-06T00:01:46.410Z,95001.00
2018-11-06T00:02:24.045Z,95001.00
2018-11-06T00:03:01.769Z,94998.00
2018-11-06T00:03:39.357Z,95000.00
2018-11-06T00:04:17.146Z,95001.00
2018-11-06T00:04:54.558Z,94992.00
2018-11-06T00:05:32.104Z,94999.00
2018-11-06T00:06:09.519Z,94998.00
2018-11-06T00:06:47.200Z,94997.00
2018-11-06T00:07:24.832Z,94994.00
2018-11-06T00:08:02.364Z,94997.00
2018-11-06T00:08:39.918Z,94995.00
2018-11-06T00:09:17.555Z,94995.00
2018-11-06T00:09:55.322Z,94995.00
2018-11-06T00:10:32.829Z,94997.00
2018-11-06T00:11:10.941Z,94993.00
2018-11-06T00:11:48.432Z,94998.00
2018-11-06T00:12:25.985Z,94996.00
2018-11-06T00:13:03.515Z,94994.00
2018-11-06T00:13:41.225Z,94996.00
2018-11-06T00:14:19.026Z,94996.00
2018-11-06T00:14:56.666Z,94994.00
2018-11-06T00:15:34.428Z,94993.00
2018-11-06T00:16:12.197Z,94997.00
2018-11-06T00:16:49.802Z,94995.00
2018-11-06T00:17:27.574Z,94997.00
2018-11-06T00:18:05.161Z,94996.00
2018-11-06T00:18:43.010Z,94992.00
2018-11-06T00:19:20.422Z,94995.00
2018-11-06T00:19:57.927Z,94991.00
2018-11-06T00:20:35.545Z,94994.00
2018-11-06T00:21:13.153Z,94993.00
2018-11-06T00:21:50.801Z,94995.00
2018-11-06T00:22:28.511Z,94993.00
2018-11-06T00:23:06.019Z,94990.00
2018-11-06T00:23:43.807Z,94989.00
2018-11-06T00:24:21.587Z,94995.00
2018-11-06T00:24:59.330Z,94989.00
2018-11-06T00:25:36.950Z,94989.00
2018-11-06T00:26:14.441Z,94987.00
2018-11-06T00:26:51.895Z,94985.00
2018-11-06T00:27:29.497Z,94980.00
2018-11-06T00:28:07.152Z,94983.00
2018-11-06T00:28:45.027Z,94983.00
2018-11-06T00:29:22.552Z,94983.00
2018-11-06T00:30:00.128Z,94985.00
2018-11-06T00:30:37.872Z,94986.00
2018-11-06T00:31:15.610Z,94985.00
2018-11-06T00:31:53.146Z,94991.00
2018-11-06T00:32:30.639Z,94985.00
2018-11-06T00:33:08.249Z,94987.00
2018-11-06T00:33:45.863Z,94986.00
2018-11-06T00:34:23.511Z,94989.00
2018-11-06T00:35:01.011Z,94993.00
2018-11-06T00:35:38.578Z,94993.00
2018-11-06T00:36:16.239Z,94997.00
2018-11-06T00:36:53.821Z,94996.00
2018-11-06T00:37:31.429Z,94995.00
2018-11-06T00:38:08.984Z,94994.00
2018-11-06T00:38:46.528Z,94999.00
2018-11-06T00:39:24.214Z,94993.00
2018-11-06T00:40:01.904Z,95000.00
2018-11-06T00:40:39.546Z,94997.00
2018-11-06T00:41:17.113Z,95002.00
2018-11-06T00:41:54.582Z,94994.00
2018-11-06T00:42:32.145Z,94999.00
2018-11-06T00:43:09.805Z,94994.00
2018-11-06T00:43:47.528Z,94997.00
2018-11-06T00:44:25.288Z,94997.00
2018-11-06T00:45:02.966Z,95000.00
2018-11-06T00:45:40.676Z,94997.00
2018-11-06T00:46:18.180Z,95000.00
2018-11-06T00:46:55.834Z,94998.00
2018-11-06T00:47:33.287Z,94995.00
2018-11-06T00:48:11.064Z,94998.00
2018-11-06T00:48:48.494Z,95001.00
2018-11-06T00:49:25.926Z,95000.00
2018-11-06T00:50:03.425Z,95000.00
2018-11-06T00:50:41.059Z,95000.00
2018-11-06T00:51:18.610Z,94998.00
2018-11-06T00:51:56.346Z,95002.00
2018-11-06T00:52:33.847Z,95001.00
2018-11-06T00:53:11.353Z,95000.00
2018-11-06T00:53:48.987Z,95003.00
2018-11-06T00:54:26.744Z,94996.00
2018-11-06T00:55:04.553Z,94998.00
2018-11-06T00:55:42.105Z,94994.00
2018-11-06T00:56:19.613Z,94994.00
2018-11-06T00:56:57.141Z,94993.00
2018-11-06T00:57:35.165Z,94994.00
2018-11-06T00:58:12.964Z,94992.00
2018-11-06T00:58:50.600Z,94998.00
2018-11-06T00:59:28.354Z,94998.00
2018-11-06T01:00:05.968Z,94992.00
2018-11-06T01:00:43.477Z,94993.00
2018-11-06T01:01:21.132Z,94992.00
2018-11-06T01:01:59.023Z,94992.00
2018-11-06T01:02:36.449Z,94993.00
2018-11-06T01:03:13.985Z,94991.00
2018-11-06T01:03:51.465Z,94995.00
2018-11-06T01:04:29.257Z,94992.00
2018-11-06T01:05:06.745Z,94995.00
2018-11-06T01:05:44.544Z,94993.00
2018-11-06T01:06:22.297Z,94998.00
2018-11-06T01:06:59.871Z,94996.00
2018-11-06T01:07:37.408Z,94999.00
2018-11-06T01:08:14.994Z,94995.00
2018-11-06T01:08:52.572Z,94992.00
2018-11-06T01:09:30.224Z,94990.00
2018-11-06T01:10:07.816Z,94992.00
2018-11-06T01:10:45.713Z,94994.00
2018-11-06T01:11:23.346Z,94989.00
2018-11-06T01:12:00.947Z,94990.00
2018-11-06T01:12:38.666Z,94990.00
2018-11-06T01:13:16.279Z,94993.00
2018-11-06T01:13:53.971Z,94989.00
2018-11-06T01:14:31.452Z,94991.00
2018-11-06T01:15:08.938Z,94989.00
2018-11-06T01:15:46.716Z,94989.00
2018-11-06T01:16:24.501Z,94984.00
2018-11-06T01:17:01.914Z,94983.00
2018-11-06T01:17:39.493Z,94983.00
2018-11-06T01:18:16.806Z,94980.00
2018-11-06T01:18:54.429Z,94986.00
2018-11-06T01:19:32.041Z,94981.00
2018-11-06T01:20:09.681Z,94982.00
2018-11-06T01:20:47.335Z,94983.00
2018-11-06T01:21:24.840Z,94981.00
2018-11-06T01:22:02.461Z,94980.00
2018-11-06T01:22:40.038Z,94980.00
2018-11-06T01:23:17.683Z,94982.00
2018-11-06T01:23:55.212Z,94977.00
2018-11-06T01:24:32.750Z,94978.00
2018-11-06T01:25:10.196Z,94977.00
2018-11-06T01:25:48.042Z,94976.00
2018-11-06T01:26:25.691Z,94982.00
2018-11-06T01:27:03.201Z,94974.00
2018-11-06T01:27:41.006Z,94976.00
2018-11-06T01:28:18.614Z,94975.00
2018-11-06T01:28:56.150Z,94971.00
2018-11-06T01:29:33.912Z,94972.00
2018-11-06T01:30:11.506Z,94969.00
2018-11-06T01:30:49.383Z,94973.00
2018-11-06T01:31:27.086Z,94973.00
2018-11-06T01:32:04.569Z,94973.00
2018-11-06T01:32:42.158Z,94976.00
2018-11-06T01:33:19.793Z,94971.00
2018-11-06T01:33:57.301Z,94969.00
2018-11-06T01:34:34.943Z,94972.00
2018-11-06T01:35:12.820Z,94972.00
2018-11-06T01:35:50.568Z,94973.00
2018-11-06T01:36:28.210Z,94969.00
2018-11-06T01:37:05.896Z,94974.00
2018-11-06T01:37:43.664Z,94971.00
2018-11-06T01:38:21.034Z,94970.00
2018-11-06T01:38:58.541Z,94972.00
2018-11-06T01:39:36.146Z,94971.00
2018-11-06T01:40:13.663Z,94968.00
2018-11-06T01:40:51.392Z,94967.00
2018-11-06T01:41:28.866Z,94967.00
2018-11-06T01:42:06.508Z,94961.00
2018-11-06T01:42:44.094Z,94965.00
2018-11-06T01:43:21.699Z,94964.00
2018-11-06T01:43:59.378Z,94967.00
2018-11-06T01:44:36.823Z,94964.00
2018-11-06T01:45:14.534Z,94963.00
2018-11-06T01:45:52.422Z,94962.00
2018-11-06T01:46:30.039Z,94965.00
2018-11-06T01:47:07.511Z,94964.00
2018-11-06T01:47:45.116Z,94965.00
2018-11-06T01:48:22.888Z,94963.00
2018-11-06T01:49:00.413Z,94965.00
2018-11-06T01:49:37.995Z,94962.00
2018-11-06T01:50:15.746Z,94960.00
2018-11-06T01:50:53.661Z,94965.00
2018-11-06T01:51:31.257Z,94959.00
2018-11-06T01:52:09.162Z,94971.00
2018-11-06T01:52:46.716Z,94962.00
2018-11-06T01:53:24.357Z,94966.00
2018-11-06T01:54:01.812Z,94964.00
2018-11-06T01:54:39.347Z,94965.00
2018-11-06T01:55:16.848Z,94965.00
2018-11-06T01:55:54.499Z,94964.00
2018-11-06T01:56:32.232Z,94962.00
2018-11-06T01:57:09.947Z,94965.00
2018-11-06T01:57:47.700Z,94962.00
2018-11-06T01:58:25.314Z,94961.00
2018-11-06T01:59:02.968Z,94962.00
2018-11-06T01:59:40.665Z,94961.00
2018-11-06T02:00:18.366Z,94959.00
2018-11-06T02:00:55.943Z,94957.00
2018-11-06T02:01:33.594Z,94960.00
2018-11-06T02:02:11.214Z,94958.00
2018-11-06T02:02:48.779Z,94958.00
2018-11-06T02:03:26.401Z,94960.00
2018-11-06T02:04:04.003Z,94961.00
2018-11-06T02:04:41.777Z,94959.00
2018-11-06T02:05:19.270Z,94959.00
2018-11-06T02:05:56.870Z,94961.00
2018-11-06T02:06:34.446Z,94963.00
2018-11-06T02:07:12.135Z,94957.00
2018-11-06T02:07:49.610Z,94962.00
2018-11-06T02:08:27.281Z,94960.00
2018-11-06T02:09:04.897Z,94961.00
2018-11-06T02:09:42.441Z,94960.00
2018-11-06T02:10:20.281Z,94956.00
2018-11-06T02:10:57.888Z,94959.00
2018-11-06T02:11:35.485Z,94956.00
2018-11-06T02:12:13.030Z,94957.00
2018-11-06T02:12:50.602Z,94961.00
2018-11-06T02:13:28.697Z,94960.00
2018-11-06T02:14:06.189Z,94960.00
2018-11-06T02:14:43.872Z,94955.00
2018-11-06T02:15:21.451Z,94959.00
2018-11-06T02:15:59.401Z,94955.00
2018-11-06T02:16:37.146Z,94964.00
2018-11-06T02:17:14.741Z,94963.00
2018-11-06T02:17:52.514Z,94963.00
2018-11-06T02:18:30.200Z,94960.00
2018-11-06T02:19:07.766Z,94957.00
2018-11-06T02:19:45.392Z,94961.00
2018-11-06T02:20:22.871Z,94957.00
2018-11-06T02:21:00.551Z,94955.00
2018-11-06T02:21:38.170Z,94954.00
2018-11-06T02:22:15.706Z,94953.00
2018-11-06T02:22:53.406Z,94954.00
2018-11-06T02:23:30.909Z,94953.00
2018-11-06T02:24:08.445Z,94947.00
2018-11-06T02:24:46.093Z,94949.00
2018-11-06T02:25:23.743Z,94952.00
2018-11-06T02:26:01.472Z,94957.00
2018-11-06T02:26:39.142Z,94957.00
2018-11-06T02:27:16.945Z,94955.00
2018-11-06T02:27:54.388Z,94956.00
2018-11-06T02:28:31.902Z,94954.00
2018-11-06T02:29:09.558Z,94949.00
2018-11-06T02:29:47.265Z,94950.00
2018-11-06T02:30:24.876Z,94956.00
2018-11-06T02:31:02.573Z,94952.00
2018-11-06T02:31:40.409Z,94949.00
2018-11-06T02:32:18.238Z,94951.00
2018-11-06T02:32:55.878Z,94949.00
2018-11-06T02:33:33.610Z,94953.00
2018-11-06T02:34:11.144Z,94954.00
2018-11-06T02:34:48.814Z,94951.00
2018-11-06T02:35:26.363Z,94953.00
2018-11-06T02:36:04.048Z,94954.00
2018-11-06T02:36:41.858Z,94952.00
2018-11-06T02:37:19.515Z,94951.00
2018-11-06T02:37:57.401Z,94952.00
2018-11-06T02:38:34.856Z,94947.00
2018-11-06T02:39:12.494Z,94951.00
2018-11-06T02:39:50.249Z,94950.00
2018-11-06T02:40:28.034Z,94954.00
2018-11-06T02:41:05.750Z,94950.00
2018-11-06T02:41:43.340Z,94951.00
2018-11-06T02:42:21.346Z,94949.00
2018-11-06T02:42:58.978Z,94953.00
2018-11-06T02:43:36.630Z,94953.00
2018-11-06T02:44:14.107Z,94956.00
2018-11-06T02:44:51.708Z,94955.00
2018-11-06T02:45:29.247Z,94950.00
2018-11-06T02:46:06.921Z,94953.00
2018-11-06T02:46:44.414Z,94956.00
2018-11-06T02:47:22.047Z,94949.00
2018-11-06T02:47:59.719Z,94953.00
2018-11-06T02:48:37.513Z,94952.00
2018-11-06T02:49:15.167Z,94954.00
2018-11-06T02:49:53.023Z,94953.00
2018-11-06T02:50:30.637Z,94953.00
2018-11-06T02:51:08.314Z,94952.00
2018-11-06T02:51:46.028Z,94959.00
2018-11-06T02:52:23.502Z,94958.00
2018-11-06T02:53:01.197Z,94959.00
2018-11-06T02:53:38.733Z,94955.00
2018-11-06T02:54:16.362Z,94961.00
2018-11-06T02:54:54.001Z,94958.00
2018-11-06T02:55:31.647Z,94960.00
2018-11-06T02:56:09.204Z,94965.00
2018-11-06T02:56:46.721Z,94961.00
2018-11-06T02:57:24.273Z,94962.00
2018-11-06T02:58:01.757Z,94963.00
2018-11-06T02:58:39.247Z,94960.00
2018-11-06T02:59:16.741Z,94961.00
2018-11-06T02:59:54.454Z,94958.00
2018-11-06T03:00:31.933Z,94957.00
2018-11-06T03:01:09.544Z,94956.00
2018-11-06T03:01:47.211Z,94954.00
2018-11-06T03:02:24.879Z,94957.00
2018-11-06T03:03:02.398Z,94956.00
2018-11-06T03:03:39.784Z,94953.00
2018-11-06T03:04:17.423Z,94952.00
2018-11-06T03:04:54.805Z,94949.00
2018-11-06T03:05:32.294Z,94950.00
2018-11-06T03:06:10.168Z,94953.00
2018-11-06T03:06:47.620Z,94952.00
2018-11-06T03:07:25.279Z,94951.00
2018-11-06T03:08:02.809Z,94951.00
2018-11-06T03:08:40.491Z,94955.00
2018-11-06T03:09:18.105Z,94948.00
2018-11-06T03:09:55.905Z,94954.00
2018-11-06T03:10:33.496Z,94949.00
2018-11-06T03:11:11.054Z,94956.00
2018-11-06T03:11:48.739Z,94953.00
2018-11-06T03:12:26.438Z,94954.00
2018-11-06T03:13:03.886Z,94952.00
2018-11-06T03:14:24.638Z,94961.00
2018-11-06T03:15:02.099Z,94959.00
2018-11-06T03:15:39.887Z,94964.00
2018-11-06T03:16:17.255Z,94959.00
2018-11-06T03:16:54.961Z,94960.00
2018-11-06T03:17:32.744Z,94961.00
2018-11-06T03:18:10.358Z,94962.00
2018-11-06T03:18:47.993Z,94963.00
2018-11-06T03:19:25.438Z,94959.00
2018-11-06T03:20:02.975Z,94961.00
2018-11-06T03:20:40.614Z,94959.00
2018-11-06T03:21:18.120Z,94961.00
2018-11-06T03:21:55.921Z,94963.00
2018-11-06T03:22:33.389Z,94960.00
2018-11-06T03:23:10.923Z,94959.00
2018-11-06T03:23:48.482Z,94961.00
2018-11-06T03:24:26.228Z,94954.00
2018-11-06T03:25:03.735Z,94954.00
2018-11-06T03:25:41.201Z,94956.00
2018-11-06T03:26:18.901Z,94955.00
2018-11-06T03:26:56.507Z,94958.00
2018-11-06T03:27:34.141Z,94954.00
2018-11-06T03:28:11.641Z,94956.00
2018-11-06T03:28:49.191Z,94959.00
2018-11-06T03:29:27.009Z,94955.00
2018-11-06T03:30:04.623Z,94956.00
2018-11-06T03:30:42.216Z,94959.00
2018-11-06T03:31:19.752Z,94957.00
2018-11-06T03:31:57.443Z,94958.00
2018-11-06T03:32:35.128Z,94959.00
2018-11-06T03:33:12.956Z,94961.00
2018-11-06T03:33:50.700Z,94957.00
2018-11-06T03:34:28.202Z,94959.00
2018-11-06T03:35:05.957Z,94952.00
2018-11-06T03:35:43.688Z,94955.00
2018-11-06T03:36:21.120Z,94955.00
2018-11-06T03:36:58.754Z,94958.00
2018-11-06T03:37:36.401Z,94957.00
2018-11-06T03:38:14.119Z,94958.00
2018-11-06T03:38:51.532Z,94956.00
2018-11-06T03:39:29.165Z,94956.00
2018-11-06T03:40:06.881Z,94953.00
2018-11-06T03:40:44.334Z,94954.00
2018-11-06T03:41:21.939Z,94956.00
2018-11-06T03:41:59.621Z,94956.00
2018-11-06T03:42:37.650Z,94955.00
2018-11-06T03:43:15.176Z,94952.00
2018-11-06T03:43:52.730Z,94955.00
2018-11-06T03:44:30.494Z,94960.00
2018-11-06T03:45:08.268Z,94958.00
2018-11-06T03:45:45.859Z,94957.00
2018-11-06T03:46:23.289Z,94954.00
2018-11-06T03:47:00.978Z,94953.00
2018-11-06T03:47:38.582Z,94954.00
2018-11-06T03:48:16.259Z,94952.00
2018-11-06T03:48:53.965Z,94955.00
2018-11-06T03:49:31.491Z,94960.00
2018-11-06T03:50:09.103Z,94957.00
2018-11-06T03:50:46.667Z,94959.00
2018-11-06T03:51:24.240Z,94958.00
2018-11-06T03:52:02.137Z,94952.00
2018-11-06T03:52:40.043Z,94954.00
2018-11-06T03:53:17.605Z,94950.00
2018-11-06T03:53:55.198Z,94953.00
2018-11-06T03:54:32.728Z,94951.00
2018-11-06T03:55:10.391Z,94953.00
2018-11-06T03:55:48.082Z,94950.00
2018-11-06T03:56:25.659Z,94959.00
2018-11-06T03:57:03.312Z,94960.00
2018-11-06T03:57:41.007Z,94956.00
2018-11-06T03:58:18.824Z,94955.00
2018-11-06T03:58:56.274Z,94957.00
2018-11-06T03:59:33.927Z,94954.00
2018-11-06T04:00:11.475Z,94958.00
2018-11-06T04:00:49.315Z,94957.00
2018-11-06T04:01:26.813Z,94957.00
2018-11-06T04:02:04.588Z,94958.00
2018-11-06T04:02:42.037Z,94954.00
2018-11-06T04:03:19.740Z,94955.00
2018-11-06T04:03:57.687Z,94957.00
2018-11-06T04:04:35.414Z,94961.00
2018-11-06T04:05:13.072Z,94957.00
2018-11-06T04:05:50.681Z,94956.00
2018-11-06T04:06:28.399Z,94959.00
2018-11-06T04:07:05.904Z,94959.00
2018-11-06T04:07:43.568Z,94958.00
2018-11-06T04:08:21.151Z,94960.00
2018-11-06T04:08:58.639Z,94959.00
2018-11-06T04:09:36.185Z,94954.00
2018-11-06T04:10:13.802Z,94961.00
2018-11-06T04:10:51.458Z,94962.00
2018-11-06T04:11:29.020Z,94956.00
2018-11-06T04:12:06.559Z,94956.00
2018-11-06T04:12:44.159Z,94954.00
2018-11-06T04:13:21.833Z,94958.00
2018-11-06T04:13:59.445Z,94955.00
2018-11-06T04:14:36.991Z,94953.00
2018-11-06T04:15:14.678Z,94956.00
2018-11-06T04:15:52.297Z,94955.00
2018-11-06T04:16:30.011Z,94955.00
2018-11-06T04:17:07.896Z,94956.00
2018-11-06T04:17:45.662Z,94954.00
2018-11-06T04:18:23.222Z,94956.00
2018-11-06T04:19:00.906Z,94950.00
2018-11-06T04:19:38.689Z,94951.00
2018-11-06T04:20:16.363Z,94950.00
2018-11-06T04:20:53.882Z,94948.00
2018-11-06T04:21:31.414Z,94952.00
2018-11-06T04:22:08.955Z,94952.00
2018-11-06T04:22:46.574Z,94954.00
2018-11-06T04:23:24.284Z,94947.00
2018-11-06T04:24:45.361Z,94948.00
2018-11-06T04:25:22.868Z,94947.00
2018-11-06T04:26:00.455Z,94947.00
2018-11-06T04:26:37.920Z,94946.00
2018-11-06T04:27:15.583Z,94946.00
2018-11-06T04:27:53.025Z,94944.00
2018-11-06T04:28:30.763Z,94943.00
2018-11-06T04:29:08.222Z,94945.00
2018-11-06T04:29:45.814Z,94943.00
2018-11-06T04:30:23.407Z,94949.00
2018-11-06T04:31:01.089Z,94946.00
2018-11-06T04:31:38.590Z,94946.00
2018-11-06T04:32:16.137Z,94946.00
2018-11-06T04:32:53.743Z,94945.00
2018-11-06T04:33:31.402Z,94944.00
2018-11-06T04:34:08.870Z,94941.00
2018-11-06T04:34:46.453Z,94943.00
2018-11-06T04:35:23.970Z,94942.00
2018-11-06T04:36:01.551Z,94941.00
2018-11-06T04:36:39.265Z,94944.00
2018-11-06T04:37:16.940Z,94937.00
2018-11-06T04:37:54.500Z,94937.00
2018-11-06T04:38:32.088Z,94935.00
2018-11-06T04:39:09.737Z,94935.00
2018-11-06T04:39:47.385Z,94931.00
2018-11-06T04:40:24.914Z,94933.00
2018-11-06T04:41:02.506Z,94936.00
2018-11-06T04:41:40.358Z,94936.00
2018-11-06T04:42:18.149Z,94936.00
2018-11-06T04:42:55.567Z,94929.00
2018-11-06T04:43:33.307Z,94933.00
2018-11-06T04:44:10.890Z,94931.00
2018-11-06T04:44:48.353Z,94929.00
2018-11-06T04:45:25.849Z,94926.00
2018-11-06T04:46:03.683Z,94930.00
2018-11-06T04:46:41.445Z,94931.00
2018-11-06T04:47:19.068Z,94927.00
2018-11-06T04:47:56.786Z,94929.00
2018-11-06T04:48:34.258Z,94921.00
2018-11-06T04:49:11.957Z,94924.00
2018-11-06T04:49:49.441Z,94921.00
2018-11-06T04:50:27.110Z,94925.00
2018-11-06T04:51:04.886Z,94926.00
2018-11-06T04:51:42.431Z,94927.00
2018-11-06T04:52:20.125Z,94927.00
2018-11-06T04:52:57.646Z,94927.00
2018-11-06T04:53:35.070Z,94931.00
2018-11-06T04:54:12.798Z,94927.00
2018-11-06T04:54:50.293Z,94934.00
2018-11-06T04:55:27.897Z,94932.00
2018-11-06T04:56:05.495Z,94929.00
2018-11-06T04:56:43.046Z,94927.00
2018-11-06T04:57:20.698Z,94925.00
2018-11-06T04:57:58.273Z,94923.00
2018-11-06T04:58:35.825Z,94926.00
2018-11-06T04:59:13.413Z,94925.00
2018-11-06T04:59:50.993Z,94925.00
2018-11-06T05:00:28.602Z,94924.00
2018-11-06T05:01:06.261Z,94922.00
2018-11-06T05:01:43.789Z,94924.00
2018-11-06T05:02:21.462Z,94923.00
2018-11-06T05:02:58.849Z,94920.00
2018-11-06T05:03:36.480Z,94920.00
2018-11-06T05:04:14.310Z,94921.00
2018-11-06T05:04:52.101Z,94924.00
2018-11-06T05:05:29.794Z,94922.00
2018-11-06T05:06:07.431Z,94925.00
2018-11-06T05:06:45.016Z,94926.00
2018-11-06T05:07:22.616Z,94924.00
2018-11-06T05:08:00.226Z,94927.00
2018-11-06T05:08:37.887Z,94926.00
2018-11-06T05:09:15.447Z,94922.00
2018-11-06T05:09:53.147Z,94922.00
2018-11-06T05:10:30.600Z,94930.00
2018-11-06T05:11:08.052Z,94919.00
2018-11-06T05:11:45.733Z,94923.00
2018-11-06T05:12:23.280Z,94923.00
2018-11-06T05:13:00.956Z,94925.00
2018-11-06T05:13:38.530Z,94927.00
2018-11-06T05:14:16.076Z,94928.00
2018-11-06T05:14:53.649Z,94932.00
2018-11-06T05:15:31.318Z,94929.00
2018-11-06T05:16:08.905Z,94933.00
2018-11-06T05:16:46.545Z,94931.00
2018-11-06T05:17:24.260Z,94935.00
2018-11-06T05:18:01.866Z,94932.00
2018-11-06T05:18:39.427Z,94940.00
2018-11-06T05:19:16.967Z,94933.00
2018-11-06T05:19:54.504Z,94935.00
2018-11-06T05:20:32.202Z,94936.00
2018-11-06T05:21:09.669Z,94938.00
2018-11-06T05:21:47.365Z,94933.00
2018-11-06T05:22:24.878Z,94936.00
2018-11-06T05:23:02.443Z,94939.00
2018-11-06T05:23:40.028Z,94938.00
2018-11-06T05:24:17.858Z,94936.00
2018-11-06T05:24:55.410Z,94939.00
2018-11-06T05:25:33.180Z,94943.00
2018-11-06T05:26:10.549Z,94942.00
2018-11-06T05:26:48.095Z,94943.00
2018-11-06T05:27:25.746Z,94942.00
2018-11-06T05:28:03.150Z,94941.00
2018-11-06T05:28:40.789Z,94942.00
2018-11-06T05:29:18.450Z,94942.00
2018-11-06T05:29:56.060Z,94941.00
2018-11-06T05:30:33.847Z,94943.00
2018-11-06T05:31:11.549Z,94943.00
2018-11-06T05:31:49.160Z,94938.00
2018-11-06T05:32:26.721Z,94944.00
2018-11-06T05:33:04.335Z,94942.00
2018-11-06T05:33:41.966Z,94942.00
2018-11-06T05:34:19.625Z,94943.00
2018-11-06T05:34:57.332Z,94944.00
2018-11-06T05:35:34.991Z,94940.00
2018-11-06T05:36:12.617Z,94941.00
2018-11-06T05:36:50.241Z,94943.00
2018-11-06T05:37:27.964Z,94945.00
2018-11-06T05:38:05.678Z,94942.00
2018-11-06T05:38:43.311Z,94946.00
2018-11-06T05:39:20.969Z,94950.00
2018-11-06T05:39:58.484Z,94952.00
2018-11-06T05:40:36.062Z,94950.00
2018-11-06T05:41:13.786Z,94957.00
2018-11-06T05:41:51.565Z,94951.00
2018-11-06T05:42:29.125Z,94946.00
2018-11-06T05:43:06.654Z,94951.00
2018-11-06T05:43:44.260Z,94949.00
2018-11-06T05:44:21.826Z,94946.00
2018-11-06T05:44:59.542Z,94947.00
2018-11-06T05:45:37.174Z,94949.00
2018-11-06T05:46:14.568Z,94947.00
2018-11-06T05:46:52.320Z,94944.00
2018-11-06T05:47:29.905Z,94941.00
2018-11-06T05:48:07.481Z,94938.00
2018-11-06T05:48:45.039Z,94943.00
2018-11-06T05:49:22.591Z,94942.00
2018-11-06T05:50:00.432Z,94941.00
2018-11-06T05:50:38.101Z,94946.00
2018-11-06T05:51:15.506Z,94939.00
2018-11-06T05:51:53.379Z,94945.00
2018-11-06T05:52:30.919Z,94948.00
2018-11-06T05:53:08.531Z,94950.00
2018-11-06T05:53:46.228Z,94950.00
2018-11-06T05:54:23.842Z,94951.00
2018-11-06T05:55:01.287Z,94948.00
2018-11-06T05:55:38.850Z,94947.00
2018-11-06T05:56:16.529Z,94951.00
2018-11-06T05:56:54.134Z,94951.00
2018-11-06T05:57:31.636Z,94952.00
2018-11-06T05:58:09.211Z,94952.00
2018-11-06T05:58:47.033Z,94947.00
2018-11-06T05:59:24.878Z,94946.00
2018-11-06T06:00:02.557Z,94948.00
2018-11-06T06:00:40.158Z,94947.00
2018-11-06T06:01:17.581Z,94949.00
2018-11-06T06:01:55.189Z,94944.00
2018-11-06T06:02:32.630Z,94953.00
2018-11-06T06:03:10.174Z,94944.00
2018-11-06T06:03:48.038Z,94946.00
2018-11-06T06:04:25.723Z,94950.00
2018-11-06T06:05:03.616Z,94949.00
2018-11-06T06:05:41.097Z,94947.00
2018-11-06T06:06:18.726Z,94950.00
2018-11-06T06:06:56.244Z,94947.00
2018-11-06T06:07:33.886Z,94950.00
2018-11-06T06:08:11.361Z,94951.00
2018-11-06T06:08:48.925Z,94949.00
2018-11-06T06:09:26.508Z,94949.00
2018-11-06T06:10:04.252Z,94950.00
2018-11-06T06:10:42.092Z,94950.00
2018-11-06T06:11:19.721Z,94948.00
2018-11-06T06:11:57.471Z,94951.00
2018-11-06T06:12:35.040Z,94950.00
2018-11-06T06:13:12.724Z,94950.00
2018-11-06T06:13:50.310Z,94952.00
2018-11-06T06:14:27.944Z,94957.00
2018-11-06T06:15:05.502Z,94954.00
2018-11-06T06:15:42.997Z,94955.00
2018-11-06T06:16:20.585Z,94959.00
2018-11-06T06:16:58.240Z,94963.00
2018-11-06T06:17:35.759Z,94957.00
2018-11-06T06:18:13.225Z,94955.00
2018-11-06T06:18:50.861Z,94957.00
2018-11-06T06:19:28.454Z,94955.00
2018-11-06T06:20:06.122Z,94955.00
2018-11-06T06:20:43.715Z,94953.00
2018-11-06T06:21:21.177Z,94947.00
2018-11-06T06:21:58.853Z,94953.00
2018-11-06T06:22:36.507Z,94951.00
2018-11-06T06:23:14.091Z,94950.00
2018-11-06T06:23:51.686Z,94952.00
2018-11-06T06:24:29.394Z,94953.00
2018-11-06T06:25:06.936Z,94952.00
2018-11-06T06:25:44.433Z,94956.00
2018-11-06T06:26:22.087Z,94951.00
2018-11-06T06:26:59.686Z,94952.00
2018-11-06T06:27:37.314Z,94953.00
2018-11-06T06:28:14.973Z,94952.00
2018-11-06T06:28:52.553Z,94958.00
2018-11-06T06:29:30.354Z,94961.00
2018-11-06T06:30:08.003Z,94961.00
2018-11-06T06:30:45.494Z,94966.00
2018-11-06T06:31:22.985Z,94961.00
2018-11-06T06:32:00.698Z,94963.00
2018-11-06T06:32:38.265Z,94965.00
2018-11-06T06:33:15.880Z,94961.00
2018-11-06T06:33:53.508Z,94965.00
2018-11-06T06:34:31.106Z,94960.00
2018-11-06T06:35:08.810Z,94966.00
2018-11-06T06:35:46.468Z,94964.00
2018-11-06T06:36:24.327Z,94959.00
2018-11-06T06:37:02.126Z,94964.00
2018-11-06T06:37:39.687Z,94968.00
2018-11-06T06:38:17.243Z,94966.00
2018-11-06T06:38:54.869Z,94965.00
2018-11-06T06:39:32.439Z,94967.00
2018-11-06T06:40:10.120Z,94972.00
2018-11-06T06:40:47.637Z,94973.00
2018-11-06T06:41:25.400Z,94966.00
2018-11-06T06:42:03.063Z,94965.00
2018-11-06T06:42:40.526Z,94966.00
2018-11-06T06:43:18.110Z,94964.00
2018-11-06T06:43:55.556Z,94968.00
2018-11-06T06:44:33.411Z,94965.00
2018-11-06T06:45:11.161Z,94959.00
2018-11-06T06:45:48.855Z,94962.00
2018-11-06T06:46:26.473Z,94960.00
2018-11-06T06:47:03.922Z,94965.00
2018-11-06T06:47:41.621Z,94963.00
2018-11-06T06:48:19.111Z,94965.00
2018-11-06T06:48:56.724Z,94965.00
2018-11-06T06:49:34.272Z,94966.00
2018-11-06T06:50:11.732Z,94965.00
2018-11-06T06:50:49.349Z,94968.00
2018-11-06T06:51:27.041Z,94968.00
2018-11-06T06:52:04.637Z,94974.00
2018-11-06T06:52:42.148Z,94972.00
2018-11-06T06:53:19.675Z,94976.00
2018-11-06T06:53:57.461Z,94974.00
2018-11-06T06:54:35.417Z,94975.00
2018-11-06T06:55:13.088Z,94973.00
2018-11-06T06:55:50.697Z,94979.00
2018-11-06T06:56:28.240Z,94974.00
2018-11-06T06:57:05.752Z,94975.00
2018-11-06T06:57:43.393Z,94976.00
2018-11-06T06:58:21.019Z,94974.00
2018-11-06T06:58:58.734Z,94972.00
2018-11-06T06:59:36.274Z,94973.00
2018-11-06T07:00:13.982Z,94971.00
2018-11-06T07:00:51.638Z,94969.00
2018-11-06T07:01:29.373Z,94972.00
2018-11-06T07:02:06.883Z,94966.00
2018-11-06T07:02:44.350Z,94967.00
2018-11-06T07:03:22.076Z,94967.00
2018-11-06T07:03:59.486Z,94965.00
2018-11-06T07:04:37.098Z,94963.00
2018-11-06T07:05:14.705Z,94967.00
2018-11-06T07:05:52.467Z,94962.00
2018-11-06T07:06:29.984Z,94960.00
2018-11-06T07:07:07.638Z,94960.00
2018-11-06T07:07:45.481Z,94961.00
2018-11-06T07:08:23.099Z,94960.00
2018-11-06T07:09:01.064Z,94957.00
2018-11-06T07:09:39.130Z,94956.00
2018-11-06T07:10:16.609Z,94957.00
2018-11-06T07:10:54.241Z,94959.00
2018-11-06T07:11:32.004Z,94962.00
2018-11-06T07:12:09.803Z,94955.00
2018-11-06T07:12:47.427Z,94958.00
2018-11-06T07:13:25.015Z,94958.00
2018-11-06T07:14:02.565Z,94952.00
2018-11-06T07:14:40.068Z,94955.00
2018-11-06T07:15:17.597Z,94955.00
2018-11-06T07:15:55.034Z,94955.00
2018-11-06T07:16:32.664Z,94953.00
2018-11-06T07:17:10.226Z,94955.00
2018-11-06T07:17:47.827Z,94957.00
2018-11-06T07:18:25.416Z,94959.00
2018-11-06T07:19:02.985Z,94958.00
2018-11-06T07:19:40.561Z,94950.00
2018-11-06T07:20:18.307Z,94954.00
2018-11-06T07:20:55.750Z,94954.00
2018-11-06T07:21:33.445Z,94955.00
2018-11-06T07:22:11.169Z,94956.00
2018-11-06T07:22:48.586Z,94958.00
2018-11-06T07:23:26.246Z,94954.00